createdAt,value
2019-01-04T00:00:53.632Z,0
2019-01-04T00:01:55.753Z,0
2019-01-04T00:02:58.095Z,0
2019-01-04T00:04:00.210Z,0
2019-01-04T00:05:02.744Z,0
2019-01-04T00:06:34.833Z,0
2019-01-04T00:07:36.888Z,0
2019-01-04T00:08:38.935Z,0
2019-01-04T00:09:41.037Z,0
2019-01-04T00:10:43.099Z,0
2019-01-04T00:11:45.535Z,0
2019-01-04T00:12:47.616Z,0
2019-01-04T00:13:49.659Z,0
2019-01-04T00:14:51.737Z,0
2019-01-04T00:15:53.828Z,0
2019-01-04T00:16:56.023Z,0
2019-01-04T00:17:58.155Z,0
2019-01-04T00:19:00.192Z,0
2019-01-04T00:20:02.606Z,0
2019-01-04T00:21:04.725Z,0
2019-01-04T00:22:06.940Z,0
2019-01-04T00:23:09.007Z,0
2019-01-04T00:24:11.041Z,0
2019-01-04T00:25:13.077Z,0
2019-01-04T00:26:15.105Z,0
2019-01-04T00:27:17.142Z,0
2019-01-04T00:28:19.480Z,0
2019-01-04T00:29:21.805Z,0
2019-01-04T00:30:24.426Z,0
2019-01-04T00:31:26.914Z,0
2019-01-04T00:32:28.999Z,0
2019-01-04T00:33:31.094Z,0
2019-01-04T00:34:33.168Z,0
2019-01-04T00:35:35.226Z,0
2019-01-04T00:36:37.561Z,0
2019-01-04T00:37:39.640Z,0
2019-01-04T00:38:41.695Z,0
2019-01-04T00:39:43.750Z,0
2019-01-04T00:40:45.824Z,0
2019-01-04T00:41:47.884Z,0
2019-01-04T00:42:49.962Z,0
2019-01-04T00:43:52.222Z,0
2019-01-04T00:44:54.307Z,0
2019-01-04T00:45:56.346Z,0
2019-01-04T00:46:58.412Z,0
2019-01-04T00:48:00.521Z,0
2019-01-04T00:49:02.542Z,0
2019-01-04T00:50:04.618Z,0
2019-01-04T00:51:06.673Z,0
2019-01-04T00:52:08.718Z,0
2019-01-04T00:53:10.761Z,0
2019-01-04T00:54:12.843Z,0
2019-01-04T00:55:14.881Z,0
2019-01-04T00:56:16.919Z,0
2019-01-04T00:57:18.987Z,0
2019-01-04T00:58:21.046Z,0
2019-01-04T00:59:24.177Z,0
2019-01-04T01:00:26.952Z,0
2019-01-04T01:01:29.050Z,0
2019-01-04T01:02:31.250Z,0
2019-01-04T01:03:33.288Z,0
2019-01-04T01:04:35.335Z,0
2019-01-04T01:05:37.784Z,0
2019-01-04T01:06:39.878Z,0
2019-01-04T01:07:41.931Z,0
2019-01-04T01:08:45.188Z,0
2019-01-04T01:09:53.095Z,0
2019-01-04T01:10:56.237Z,0
2019-01-04T01:11:58.368Z,0
2019-01-04T01:13:01.012Z,0
2019-01-04T01:14:03.081Z,0
2019-01-04T01:15:05.137Z,0
2019-01-04T01:16:07.256Z,0
2019-01-04T01:17:09.320Z,0
2019-01-04T01:18:11.381Z,0
2019-01-04T01:19:13.493Z,0
2019-01-04T01:20:15.529Z,0
2019-01-04T01:21:17.566Z,0
2019-01-04T01:22:19.629Z,0
2019-01-04T01:23:21.676Z,0
2019-01-04T01:24:23.706Z,0
2019-01-04T01:25:25.894Z,0
2019-01-04T01:26:28.258Z,0
2019-01-04T01:27:30.305Z,0
2019-01-04T01:28:32.345Z,0
2019-01-04T01:29:34.429Z,0
2019-01-04T01:30:36.477Z,0
2019-01-04T01:31:38.627Z,0
2019-01-04T01:32:41.060Z,0
2019-01-04T01:33:43.147Z,0
2019-01-04T01:34:45.206Z,0
2019-01-04T01:35:47.346Z,0
2019-01-04T01:36:49.384Z,0
2019-01-04T01:37:51.448Z,0
2019-01-04T01:38:53.489Z,0
2019-01-04T01:39:55.717Z,0
2019-01-04T01:40:57.757Z,0
2019-01-04T01:41:59.803Z,0
2019-01-04T01:43:01.897Z,0
2019-01-04T01:44:03.956Z,0
2019-01-04T01:45:06.026Z,0
2019-01-04T01:46:08.067Z,0
2019-01-04T01:47:10.108Z,0
2019-01-04T01:48:12.198Z,0
2019-01-04T01:49:14.283Z,0
2019-01-04T01:50:16.343Z,0
2019-01-04T01:51:18.379Z,0
2019-01-04T01:52:20.421Z,0
2019-01-04T01:53:22.863Z,0
2019-01-04T01:54:24.925Z,0
2019-01-04T01:55:27.653Z,0
2019-01-04T01:56:29.720Z,0
2019-01-04T01:57:31.765Z,0
2019-01-04T01:58:33.810Z,0
2019-01-04T01:59:35.877Z,0
2019-01-04T02:00:38.224Z,0
2019-01-04T02:01:40.651Z,0
2019-01-04T02:02:43.086Z,0
2019-01-04T02:03:45.152Z,0
2019-01-04T02:04:47.213Z,0
2019-01-04T02:05:49.264Z,0
2019-01-04T02:06:51.312Z,0
2019-01-04T02:07:53.355Z,0
2019-01-04T02:08:55.418Z,0
2019-01-04T02:09:57.480Z,0
2019-01-04T02:10:59.515Z,0
2019-01-04T02:12:02.244Z,0
2019-01-04T02:13:04.296Z,0
2019-01-04T02:14:06.350Z,0
2019-01-04T02:15:08.395Z,0
2019-01-04T02:16:10.436Z,0
2019-01-04T02:17:12.484Z,0
2019-01-04T02:18:14.521Z,0
2019-01-04T02:19:16.857Z,0
2019-01-04T02:20:18.881Z,0
2019-01-04T02:21:20.925Z,0
2019-01-04T02:22:22.972Z,0
2019-01-04T02:23:25.003Z,0
2019-01-04T02:24:27.057Z,0
2019-01-04T02:25:29.125Z,0
2019-01-04T02:26:31.184Z,0
2019-01-04T02:27:33.236Z,0
2019-01-04T02:28:35.269Z,0
2019-01-04T02:29:37.338Z,0
2019-01-04T02:30:39.401Z,0
2019-01-04T02:31:41.436Z,0
2019-01-04T02:32:43.530Z,0
2019-01-04T02:33:45.579Z,0
2019-01-04T02:34:47.628Z,0
2019-01-04T02:35:49.680Z,0
2019-01-04T02:36:52.007Z,0
2019-01-04T02:37:54.322Z,0
2019-01-04T02:38:56.359Z,0
2019-01-04T02:39:58.831Z,0
2019-01-04T02:41:00.851Z,0
2019-01-04T02:42:02.912Z,0
2019-01-04T02:43:05.236Z,0
2019-01-04T02:44:07.584Z,0
2019-01-04T02:45:09.904Z,0
2019-01-04T02:46:12.240Z,0
2019-01-04T02:47:14.273Z,0
2019-01-04T02:48:16.592Z,0
2019-01-04T02:49:18.621Z,0
2019-01-04T02:50:20.957Z,0
2019-01-04T02:51:22.988Z,0
2019-01-04T02:52:25.026Z,0
2019-01-04T02:53:27.074Z,0
2019-01-04T02:54:29.824Z,0
2019-01-04T02:55:31.861Z,0
2019-01-04T02:56:33.909Z,0
2019-01-04T02:57:35.945Z,0
2019-01-04T02:58:38.010Z,0
2019-01-04T02:59:40.361Z,0
2019-01-04T03:00:42.784Z,0
2019-01-04T03:01:44.822Z,0
2019-01-04T03:02:47.251Z,0
2019-01-04T03:03:49.643Z,0
2019-01-04T03:04:51.689Z,0
2019-01-04T03:05:53.730Z,0
2019-01-04T03:06:56.043Z,0
2019-01-04T03:07:58.158Z,0
2019-01-04T03:09:00.577Z,0
2019-01-04T03:10:02.627Z,0
2019-01-04T03:11:04.691Z,0
2019-01-04T03:12:06.737Z,0
2019-01-04T03:13:08.770Z,0
2019-01-04T03:14:11.112Z,0
2019-01-04T03:15:13.140Z,0
2019-01-04T03:16:15.550Z,0
2019-01-04T03:17:17.889Z,0
2019-01-04T03:18:20.232Z,0
2019-01-04T03:19:22.856Z,0
2019-01-04T03:20:25.476Z,0
2019-01-04T03:21:27.531Z,0
2019-01-04T03:22:29.867Z,0
2019-01-04T03:23:31.904Z,0
2019-01-04T03:24:34.276Z,0
2019-01-04T03:25:36.308Z,0
2019-01-04T03:26:38.353Z,0
2019-01-04T03:27:41.059Z,0
2019-01-04T03:28:43.111Z,0
2019-01-04T03:29:45.155Z,0
2019-01-04T03:30:47.594Z,0
2019-01-04T03:31:49.665Z,0
2019-01-04T03:32:52.013Z,0
2019-01-04T03:33:54.333Z,0
2019-01-04T03:34:56.367Z,0
2019-01-04T03:35:58.406Z,0
2019-01-04T03:37:00.439Z,0
2019-01-04T03:38:03.070Z,0
2019-01-04T03:39:05.519Z,0
2019-01-04T03:40:07.562Z,0
2019-01-04T03:41:09.584Z,0
2019-01-04T03:42:12.007Z,0
2019-01-04T03:43:14.054Z,0
2019-01-04T03:44:16.363Z,0
2019-01-04T03:45:18.412Z,0
2019-01-04T03:46:20.745Z,0
2019-01-04T03:47:22.819Z,0
2019-01-04T03:48:24.848Z,0
2019-01-04T03:49:26.899Z,0
2019-01-04T03:50:29.012Z,0
2019-01-04T03:51:32.124Z,0
2019-01-04T03:52:34.170Z,0
2019-01-04T03:53:36.231Z,0
2019-01-04T03:54:38.273Z,0
2019-01-04T03:55:40.327Z,0
2019-01-04T03:56:42.378Z,0
2019-01-04T03:57:45.093Z,0
2019-01-04T03:58:47.133Z,0
2019-01-04T03:59:49.563Z,0
2019-01-04T04:00:51.602Z,0
2019-01-04T04:01:53.665Z,0
2019-01-04T04:02:55.704Z,0
2019-01-04T04:03:57.753Z,0
2019-01-04T04:04:59.786Z,0
2019-01-04T04:06:02.144Z,0
2019-01-04T04:07:04.226Z,0
2019-01-04T04:08:06.249Z,0
2019-01-04T04:09:08.308Z,0
2019-01-04T04:10:10.401Z,0
2019-01-04T04:11:12.453Z,0
2019-01-04T04:12:14.488Z,0
2019-01-04T04:13:16.545Z,0
2019-01-04T04:14:18.886Z,0
2019-01-04T04:15:20.959Z,0
2019-01-04T04:16:23.303Z,0
2019-01-04T04:17:25.358Z,0
2019-01-04T04:18:27.397Z,0
2019-01-04T04:19:29.449Z,0
2019-01-04T04:20:31.492Z,0
2019-01-04T04:21:33.558Z,0
2019-01-04T04:22:35.597Z,0
2019-01-04T04:23:37.651Z,0
2019-01-04T04:24:39.673Z,0
2019-01-04T04:25:41.725Z,0
2019-01-04T04:26:43.772Z,0
2019-01-04T04:27:45.823Z,0
2019-01-04T04:28:48.567Z,0
2019-01-04T04:29:50.592Z,0
2019-01-04T04:30:52.654Z,0
2019-01-04T04:31:54.740Z,0
2019-01-04T04:32:57.084Z,0
2019-01-04T04:33:59.121Z,0
2019-01-04T04:35:01.234Z,0
2019-01-04T04:36:03.590Z,0
2019-01-04T04:37:05.621Z,0
2019-01-04T04:38:07.949Z,0
2019-01-04T04:39:09.987Z,0
2019-01-04T04:40:12.034Z,0
2019-01-04T04:41:14.094Z,0
2019-01-04T04:42:16.424Z,0
2019-01-04T04:43:18.448Z,0
2019-01-04T04:44:20.470Z,0
2019-01-04T04:45:22.512Z,0
2019-01-04T04:46:24.554Z,0
2019-01-04T04:47:26.889Z,0
2019-01-04T04:48:28.928Z,0
2019-01-04T04:49:30.966Z,0
2019-01-04T04:50:33.027Z,0
2019-01-04T04:51:35.066Z,0
2019-01-04T04:52:37.373Z,0
2019-01-04T04:53:39.784Z,0
2019-01-04T04:54:41.938Z,0
2019-01-04T04:55:44.257Z,0
2019-01-04T04:56:46.595Z,0
2019-01-04T04:57:48.636Z,0
2019-01-04T04:58:50.943Z,0
2019-01-04T04:59:53.362Z,0
2019-01-04T05:00:56.355Z,0
2019-01-04T05:01:58.406Z,0
2019-01-04T05:03:00.851Z,0
2019-01-04T05:04:02.906Z,0
2019-01-04T05:05:05.245Z,0
2019-01-04T05:06:07.307Z,0
2019-01-04T05:07:09.341Z,0
2019-01-04T05:08:11.402Z,0
2019-01-04T05:09:14.126Z,0
2019-01-04T05:10:16.184Z,0
2019-01-04T05:11:18.246Z,0
2019-01-04T05:12:20.580Z,0
2019-01-04T05:13:22.657Z,0
2019-01-04T05:14:24.716Z,0
2019-01-04T05:15:26.783Z,0
2019-01-04T05:16:28.831Z,0
2019-01-04T05:17:30.885Z,0
2019-01-04T05:18:32.918Z,0
2019-01-04T05:19:34.981Z,0
2019-01-04T05:20:37.036Z,0
2019-01-04T05:21:39.169Z,0
2019-01-04T05:22:41.691Z,0
2019-01-04T05:23:43.886Z,0
2019-01-04T05:24:46.398Z,0
2019-01-04T05:25:49.281Z,0
2019-01-04T05:26:51.721Z,0
2019-01-04T05:27:53.894Z,0
2019-01-04T05:28:56.045Z,0
2019-01-04T05:29:58.481Z,0
2019-01-04T05:31:00.625Z,0
2019-01-04T05:32:03.079Z,0
2019-01-04T05:33:05.591Z,0
2019-01-04T05:34:08.038Z,0
2019-01-04T05:35:10.168Z,0
2019-01-04T05:36:12.322Z,0
2019-01-04T05:37:14.837Z,0
2019-01-04T05:38:17.016Z,0
2019-01-04T05:39:19.153Z,0
2019-01-04T05:40:21.695Z,0
2019-01-04T05:41:23.835Z,0
2019-01-04T05:42:25.977Z,0
2019-01-04T05:43:29.122Z,0
2019-01-04T05:44:31.300Z,0
2019-01-04T05:45:33.468Z,0
2019-01-04T05:46:35.676Z,0
2019-01-04T05:47:37.814Z,0
2019-01-04T05:48:39.982Z,0
2019-01-04T05:49:42.151Z,0
2019-01-04T05:50:44.321Z,0
2019-01-04T05:51:46.859Z,0
2019-01-04T05:52:49.294Z,0
2019-01-04T05:53:51.476Z,0
2019-01-04T05:54:53.624Z,0
2019-01-04T05:55:55.792Z,0
2019-01-04T05:56:57.968Z,0
2019-01-04T05:58:00.113Z,0
2019-01-04T05:59:02.317Z,0
2019-01-04T06:00:04.562Z,0
2019-01-04T06:01:06.976Z,0
2019-01-04T06:02:09.139Z,0
2019-01-04T06:03:11.690Z,0
2019-01-04T06:04:13.833Z,0
2019-01-04T06:05:16.650Z,0
2019-01-04T06:06:18.772Z,0
2019-01-04T06:07:20.956Z,0
2019-01-04T06:08:23.379Z,0
2019-01-04T06:09:25.566Z,0
2019-01-04T06:10:27.731Z,0
2019-01-04T06:11:29.945Z,0
2019-01-04T06:12:32.223Z,0
2019-01-04T06:13:34.367Z,0
2019-01-04T06:14:36.796Z,0
2019-01-04T06:15:39.119Z,0
2019-01-04T06:16:41.352Z,0
2019-01-04T06:17:43.497Z,0
2019-01-04T06:18:45.677Z,0
2019-01-04T06:19:47.828Z,0
2019-01-04T06:20:49.995Z,0
2019-01-04T06:21:52.404Z,0
2019-01-04T06:22:54.605Z,0
2019-01-04T06:23:56.764Z,0
2019-01-04T06:24:59.018Z,0
2019-01-04T06:26:01.184Z,0
2019-01-04T06:27:03.318Z,0
2019-01-04T06:28:05.448Z,0
2019-01-04T06:29:07.999Z,0
2019-01-04T06:30:10.269Z,0
2019-01-04T06:31:12.394Z,0
2019-01-04T06:32:14.905Z,0
2019-01-04T06:33:17.045Z,0
2019-01-04T06:34:19.239Z,0
2019-01-04T06:35:21.400Z,0
2019-01-04T06:36:23.541Z,0
2019-01-04T06:37:25.690Z,0
2019-01-04T06:38:27.850Z,0
2019-01-04T06:39:30.049Z,0
2019-01-04T06:40:32.190Z,0
2019-01-04T06:41:34.328Z,0
2019-01-04T06:42:36.518Z,0
2019-01-04T06:43:38.635Z,0
2019-01-04T06:44:40.929Z,0
2019-01-04T06:45:43.067Z,0
2019-01-04T06:46:45.270Z,0
2019-01-04T06:47:47.421Z,0
2019-01-04T06:48:49.534Z,0
2019-01-04T06:49:51.675Z,0
2019-01-04T06:50:53.865Z,0
2019-01-04T06:51:56.051Z,0
2019-01-04T06:52:58.195Z,0
2019-01-04T06:54:00.371Z,0
2019-01-04T06:55:02.522Z,0
2019-01-04T06:56:04.672Z,0
2019-01-04T06:57:07.185Z,0
2019-01-04T06:58:09.397Z,0
2019-01-04T06:59:11.540Z,0
2019-01-04T07:00:13.729Z,0
2019-01-04T07:01:15.876Z,0
2019-01-04T07:02:18.014Z,0
2019-01-04T07:03:20.455Z,0
2019-01-04T07:04:22.586Z,0
2019-01-04T07:05:24.722Z,0
2019-01-04T07:06:27.148Z,0
2019-01-04T07:07:29.277Z,0
2019-01-04T07:08:31.628Z,0
2019-01-04T07:09:33.782Z,0
2019-01-04T07:10:36.313Z,0
2019-01-04T07:11:38.441Z,0
2019-01-04T07:12:40.579Z,0
2019-01-04T07:13:43.101Z,0
2019-01-04T07:14:45.228Z,0
2019-01-04T07:15:47.385Z,0
2019-01-04T07:16:49.500Z,0
2019-01-04T07:17:51.641Z,0
2019-01-04T07:18:54.149Z,0
2019-01-04T07:19:56.289Z,0
2019-01-04T07:20:59.115Z,0
2019-01-04T07:22:01.272Z,0
2019-01-04T07:23:03.782Z,0
2019-01-04T07:24:05.928Z,0
2019-01-04T07:25:08.080Z,0
2019-01-04T07:26:10.184Z,0
2019-01-04T07:27:12.316Z,0
2019-01-04T07:28:14.435Z,0
2019-01-04T07:29:16.563Z,0
2019-01-04T07:30:18.965Z,0
2019-01-04T07:31:21.202Z,0
2019-01-04T07:32:23.390Z,0
2019-01-04T07:33:25.800Z,0
2019-01-04T07:34:28.122Z,0
2019-01-04T07:35:30.265Z,0
2019-01-04T07:36:37.178Z,0
2019-01-04T07:37:39.928Z,0
2019-01-04T07:38:46.913Z,0
2019-01-04T07:39:52.210Z,0
2019-01-04T07:40:54.578Z,1
2019-01-04T07:41:56.768Z,1
2019-01-04T07:43:00.361Z,1
2019-01-04T07:44:05.459Z,1
2019-01-04T07:45:08.228Z,1
2019-01-04T07:46:13.815Z,1
2019-01-04T07:47:19.422Z,1
2019-01-04T07:48:24.338Z,1
2019-01-04T07:49:28.806Z,1
2019-01-04T07:50:31.358Z,1
2019-01-04T07:51:33.497Z,1
2019-01-04T07:52:35.670Z,1
2019-01-04T07:53:38.187Z,1
2019-01-04T07:54:40.493Z,1
2019-01-04T07:55:42.624Z,1
2019-01-04T07:56:44.815Z,1
2019-01-04T07:57:46.995Z,1
2019-01-04T07:58:49.118Z,2
2019-01-04T07:59:51.276Z,2
2019-01-04T08:00:53.419Z,2
2019-01-04T08:01:55.837Z,2
2019-01-04T08:02:57.980Z,2
2019-01-04T08:04:00.122Z,3
2019-01-04T08:05:02.610Z,2
2019-01-04T08:06:05.051Z,2
2019-01-04T08:07:07.182Z,3
2019-01-04T08:08:09.325Z,3
2019-01-04T08:09:11.470Z,2
2019-01-04T08:10:13.613Z,3
2019-01-04T08:11:15.739Z,3
2019-01-04T08:12:17.871Z,3
2019-01-04T08:13:19.990Z,3
2019-01-04T08:14:22.125Z,3
2019-01-04T08:15:29.247Z,4
2019-01-04T08:16:37.557Z,4
2019-01-04T08:17:43.224Z,4
2019-01-04T08:18:51.190Z,3
2019-01-04T08:19:59.979Z,4
2019-01-04T08:21:02.544Z,4
2019-01-04T08:22:04.777Z,4
2019-01-04T08:23:06.903Z,5
2019-01-04T08:24:09.101Z,5
2019-01-04T08:25:11.277Z,6
2019-01-04T08:26:13.408Z,5
2019-01-04T08:27:15.816Z,4
2019-01-04T08:28:17.939Z,4
2019-01-04T08:29:20.089Z,4
2019-01-04T08:30:23.511Z,5
2019-01-04T08:31:25.921Z,7
2019-01-04T08:32:28.257Z,5
2019-01-04T08:33:30.692Z,4
2019-01-04T08:34:32.841Z,4
2019-01-04T08:35:34.975Z,4
2019-01-04T08:36:37.091Z,3
2019-01-04T08:37:39.234Z,3
2019-01-04T08:38:41.371Z,4
2019-01-04T08:39:43.505Z,3
2019-01-04T08:40:45.626Z,4
2019-01-04T08:41:48.030Z,4
2019-01-04T08:42:50.180Z,4
2019-01-04T08:43:52.710Z,3
2019-01-04T08:44:54.843Z,4
2019-01-04T08:45:56.968Z,4
2019-01-04T08:46:59.092Z,5
2019-01-04T08:48:01.241Z,5
2019-01-04T08:49:03.397Z,4
2019-01-04T08:50:05.537Z,4
2019-01-04T08:51:07.671Z,4
2019-01-04T08:52:09.790Z,5
2019-01-04T08:53:11.940Z,6
2019-01-04T08:54:14.093Z,6
2019-01-04T08:55:16.230Z,6
2019-01-04T08:56:18.370Z,7
2019-01-04T08:57:20.502Z,6
2019-01-04T08:58:22.632Z,6
2019-01-04T08:59:24.755Z,6
2019-01-04T09:00:26.908Z,5
2019-01-04T09:01:29.062Z,7
2019-01-04T09:02:31.199Z,6
2019-01-04T09:03:33.383Z,7
2019-01-04T09:04:35.522Z,8
2019-01-04T09:05:37.670Z,7
2019-01-04T09:06:39.813Z,7
2019-01-04T09:07:41.939Z,7
2019-01-04T09:08:44.460Z,8
2019-01-04T09:09:46.608Z,7
2019-01-04T09:10:48.748Z,7
2019-01-04T09:11:50.892Z,6
2019-01-04T09:12:53.035Z,6
2019-01-04T09:13:55.187Z,6
2019-01-04T09:14:57.339Z,6
2019-01-04T09:15:59.483Z,5
2019-01-04T09:17:01.605Z,6
2019-01-04T09:18:03.746Z,6
2019-01-04T09:19:05.864Z,5
2019-01-04T09:20:08.005Z,5
2019-01-04T09:21:10.146Z,6
2019-01-04T09:22:12.299Z,7
2019-01-04T09:23:14.438Z,7
2019-01-04T09:24:16.865Z,6
2019-01-04T09:25:18.999Z,5
2019-01-04T09:26:21.172Z,7
2019-01-04T09:27:23.290Z,6
2019-01-04T09:28:25.439Z,6
2019-01-04T09:29:27.607Z,6
2019-01-04T09:30:29.792Z,6
2019-01-04T09:31:31.922Z,7
2019-01-04T09:32:34.059Z,7
2019-01-04T09:33:36.576Z,8
2019-01-04T09:34:38.738Z,7
2019-01-04T09:35:41.058Z,8
2019-01-04T09:36:43.479Z,7
2019-01-04T09:37:45.910Z,6
2019-01-04T09:38:48.032Z,7
2019-01-04T09:39:50.511Z,7
2019-01-04T09:40:52.658Z,7
2019-01-04T09:41:54.781Z,7
2019-01-04T09:42:56.960Z,7
2019-01-04T09:43:59.134Z,7
2019-01-04T09:45:01.586Z,6
2019-01-04T09:46:03.720Z,7
2019-01-04T09:47:05.860Z,8
2019-01-04T09:48:08.004Z,8
2019-01-04T09:49:10.167Z,9
2019-01-04T09:50:12.304Z,8
2019-01-04T09:51:14.450Z,8
2019-01-04T09:52:16.579Z,9
2019-01-04T09:53:18.717Z,8
2019-01-04T09:54:20.852Z,9
2019-01-04T09:55:23.008Z,8
2019-01-04T09:56:25.164Z,7
2019-01-04T09:57:27.311Z,9
2019-01-04T09:58:29.441Z,7
2019-01-04T09:59:31.563Z,7
2019-01-04T10:00:33.698Z,7
2019-01-04T10:01:35.827Z,7
2019-01-04T10:02:37.941Z,6
2019-01-04T10:03:40.086Z,6
2019-01-04T10:04:42.225Z,6
2019-01-04T10:05:44.638Z,6
2019-01-04T10:06:46.760Z,5
2019-01-04T10:07:48.905Z,5
2019-01-04T10:08:51.062Z,5
2019-01-04T10:09:53.201Z,5
2019-01-04T10:11:40.161Z,4
2019-01-04T10:12:42.311Z,5
2019-01-04T10:13:44.461Z,5
2019-01-04T10:14:46.609Z,6
2019-01-04T10:15:48.815Z,6
2019-01-04T10:16:51.249Z,7
2019-01-04T10:17:53.376Z,6
2019-01-04T10:18:56.737Z,6
2019-01-04T10:19:59.244Z,6
2019-01-04T10:21:01.533Z,6
2019-01-04T10:22:03.682Z,7
2019-01-04T10:23:05.809Z,7
2019-01-04T10:24:07.937Z,6
2019-01-04T10:25:11.045Z,7
2019-01-04T10:26:13.186Z,7
2019-01-04T10:27:15.332Z,7
2019-01-04T10:28:17.892Z,8
2019-01-04T10:29:20.103Z,8
2019-01-04T10:30:22.226Z,9
2019-01-04T10:31:24.643Z,9
2019-01-04T10:32:26.773Z,8
2019-01-04T10:33:28.967Z,8
2019-01-04T10:34:31.133Z,9
2019-01-04T10:35:33.268Z,9
2019-01-04T10:36:35.389Z,11
2019-01-04T10:37:37.820Z,9
2019-01-04T10:38:40.009Z,8
2019-01-04T10:39:42.136Z,9
2019-01-04T10:40:44.267Z,11
2019-01-04T10:41:46.705Z,9
2019-01-04T10:42:48.816Z,8
2019-01-04T10:43:51.323Z,7
2019-01-04T10:44:53.443Z,8
2019-01-04T10:45:55.569Z,8
2019-01-04T10:46:57.703Z,8
2019-01-04T10:47:59.902Z,9
2019-01-04T10:49:02.333Z,9
2019-01-04T10:50:04.459Z,11
2019-01-04T10:51:06.623Z,10
2019-01-04T10:52:08.764Z,10
2019-01-04T10:53:10.890Z,10
2019-01-04T10:54:13.031Z,9
2019-01-04T10:55:15.463Z,10
2019-01-04T10:56:17.586Z,9
2019-01-04T10:57:19.709Z,8
2019-01-04T10:58:21.834Z,8
2019-01-04T10:59:23.973Z,8
2019-01-04T11:00:26.115Z,7
2019-01-04T11:01:28.237Z,7
2019-01-04T11:02:30.363Z,7
2019-01-04T11:03:32.495Z,6
2019-01-04T11:04:34.650Z,6
2019-01-04T11:05:36.780Z,7
2019-01-04T11:06:39.218Z,7
2019-01-04T11:07:41.335Z,8
2019-01-04T11:08:43.466Z,8
2019-01-04T11:09:45.608Z,7
2019-01-04T11:10:48.056Z,7
2019-01-04T11:11:50.161Z,7
2019-01-04T11:12:52.285Z,6
2019-01-04T11:13:54.423Z,6
2019-01-04T11:14:56.560Z,6
2019-01-04T11:15:58.694Z,6
2019-01-04T11:17:00.806Z,6
2019-01-04T11:18:10.454Z,6
2019-01-04T11:19:12.855Z,6
2019-01-04T11:20:15.010Z,6
2019-01-04T11:21:17.131Z,6
2019-01-04T11:22:19.466Z,8
2019-01-04T11:23:22.400Z,8
2019-01-04T11:24:24.540Z,7
2019-01-04T11:25:26.687Z,7
2019-01-04T11:26:28.824Z,6
2019-01-04T11:27:30.962Z,6
2019-01-04T11:28:33.093Z,7
2019-01-04T11:29:35.245Z,7
2019-01-04T11:30:37.645Z,7
2019-01-04T11:31:40.172Z,7
2019-01-04T11:32:42.333Z,7
2019-01-04T11:33:44.456Z,7
2019-01-04T11:34:46.930Z,7
2019-01-04T11:35:49.103Z,7
2019-01-04T11:36:51.239Z,8
2019-01-04T11:37:53.390Z,7
2019-01-04T11:38:55.522Z,7
2019-01-04T11:39:57.658Z,6
2019-01-04T11:40:59.808Z,7
2019-01-04T11:42:01.937Z,7
2019-01-04T11:43:04.094Z,7
2019-01-04T11:44:06.243Z,6
2019-01-04T11:45:08.349Z,6
2019-01-04T11:46:10.492Z,7
2019-01-04T11:47:12.652Z,7
2019-01-04T11:48:14.773Z,6
2019-01-04T11:49:16.907Z,6
2019-01-04T11:50:19.073Z,6
2019-01-04T11:51:21.208Z,6
2019-01-04T11:52:23.362Z,6
2019-01-04T11:53:25.762Z,6
2019-01-04T11:54:27.920Z,6
2019-01-04T11:55:30.061Z,6
2019-01-04T11:56:32.212Z,6
2019-01-04T11:57:34.636Z,6
2019-01-04T11:58:36.765Z,6
2019-01-04T11:59:40.253Z,6
2019-01-04T12:00:42.663Z,6
2019-01-04T12:01:44.798Z,6
2019-01-04T12:02:46.932Z,7
2019-01-04T12:03:49.040Z,6
2019-01-04T12:04:51.178Z,7
2019-01-04T12:05:53.342Z,7
2019-01-04T12:06:55.471Z,7
2019-01-04T12:07:57.610Z,6
2019-01-04T12:08:59.760Z,6
2019-01-04T12:10:01.888Z,5
2019-01-04T12:11:04.018Z,5
2019-01-04T12:12:06.175Z,6
2019-01-04T12:13:08.321Z,5
2019-01-04T12:14:10.482Z,5
2019-01-04T12:15:12.639Z,5
2019-01-04T12:16:14.785Z,5
2019-01-04T12:17:16.932Z,6
2019-01-04T12:18:19.082Z,5
2019-01-04T12:19:21.230Z,5
2019-01-04T12:20:23.358Z,5
2019-01-04T12:21:25.494Z,5
2019-01-04T12:22:27.639Z,6
2019-01-04T12:23:30.967Z,6
2019-01-04T12:24:33.168Z,6
2019-01-04T12:25:35.309Z,6
2019-01-04T12:26:37.447Z,5
2019-01-04T12:27:39.911Z,5
2019-01-04T12:28:42.360Z,5
2019-01-04T12:29:44.503Z,7
2019-01-04T12:30:46.644Z,7
2019-01-04T12:31:48.771Z,6
2019-01-04T12:32:50.914Z,5
2019-01-04T12:33:53.073Z,6
2019-01-04T12:34:55.609Z,6
2019-01-04T12:35:57.737Z,6
2019-01-04T12:37:00.163Z,5
2019-01-04T12:38:02.303Z,5
2019-01-04T12:39:04.723Z,6
2019-01-04T12:40:06.859Z,6
2019-01-04T12:41:09.010Z,5
2019-01-04T12:42:11.154Z,6
2019-01-04T12:44:11.057Z,5
2019-01-04T12:45:13.193Z,7
2019-01-04T12:46:15.334Z,8
2019-01-04T12:47:17.483Z,6
2019-01-04T12:48:19.614Z,7
2019-01-04T12:49:21.766Z,8
2019-01-04T12:50:23.907Z,9
2019-01-04T12:51:26.102Z,9
2019-01-04T12:52:28.239Z,10
2019-01-04T12:53:30.382Z,12
2019-01-04T12:54:32.544Z,10
2019-01-04T12:55:35.090Z,9
2019-01-04T12:56:37.783Z,11
2019-01-04T12:57:39.894Z,9
2019-01-04T12:58:42.023Z,8
2019-01-04T12:59:44.230Z,9
2019-01-04T13:00:46.355Z,8
2019-01-04T13:01:48.469Z,8
2019-01-04T13:02:50.612Z,9
2019-01-04T13:03:52.739Z,10
2019-01-04T13:04:55.159Z,10
2019-01-04T13:05:57.298Z,10
2019-01-04T13:06:59.435Z,9
2019-01-04T13:08:01.573Z,9
2019-01-04T13:09:03.704Z,7
2019-01-04T13:10:06.146Z,7
2019-01-04T13:11:08.294Z,7
2019-01-04T13:12:10.829Z,6
2019-01-04T13:13:12.979Z,6
2019-01-04T13:14:15.796Z,7
2019-01-04T13:15:17.960Z,6
2019-01-04T13:16:20.421Z,8
2019-01-04T13:17:22.570Z,8
2019-01-04T13:18:24.700Z,8
2019-01-04T13:19:27.307Z,9
2019-01-04T13:20:29.464Z,8
2019-01-04T13:21:31.605Z,6
2019-01-04T13:22:33.741Z,7
2019-01-04T13:23:35.884Z,8
2019-01-04T13:24:38.014Z,11
2019-01-04T13:25:40.154Z,12
2019-01-04T13:26:42.281Z,13
2019-01-04T13:27:44.428Z,14
2019-01-04T13:28:46.570Z,13
2019-01-04T13:29:49.532Z,14
2019-01-04T13:30:51.684Z,15
2019-01-04T13:31:54.726Z,15
2019-01-04T13:32:57.164Z,14
2019-01-04T13:33:59.317Z,15
2019-01-04T13:35:01.911Z,15
2019-01-04T13:36:04.064Z,15
2019-01-04T13:37:06.198Z,14
2019-01-04T13:38:08.349Z,15
2019-01-04T13:39:10.491Z,15
2019-01-04T13:40:12.634Z,15
2019-01-04T13:41:14.803Z,15
2019-01-04T13:42:16.939Z,16
2019-01-04T13:43:19.093Z,15
2019-01-04T13:44:21.528Z,15
2019-01-04T13:45:23.997Z,14
2019-01-04T13:46:26.749Z,13
2019-01-04T13:47:33.958Z,13
2019-01-04T13:48:36.126Z,13
2019-01-04T13:49:38.263Z,14
2019-01-04T13:50:40.374Z,13
2019-01-04T13:51:42.519Z,12
2019-01-04T13:52:44.672Z,11
2019-01-04T13:53:46.788Z,11
2019-01-04T13:54:49.199Z,12
2019-01-04T13:55:51.361Z,11
2019-01-04T13:56:53.750Z,12
2019-01-04T13:57:55.886Z,12
2019-01-04T13:58:58.249Z,11
2019-01-04T14:00:00.938Z,10
2019-01-04T14:01:03.080Z,10
2019-01-04T14:02:06.050Z,10
2019-01-04T14:03:08.380Z,9
2019-01-04T14:04:10.679Z,9
2019-01-04T14:05:13.404Z,10
2019-01-04T14:06:15.566Z,8
2019-01-04T14:07:18.085Z,8
2019-01-04T14:08:20.606Z,8
2019-01-04T14:09:22.796Z,7
2019-01-04T14:10:25.180Z,6
2019-01-04T14:11:27.506Z,7
2019-01-04T14:12:30.057Z,6
2019-01-04T14:13:32.227Z,6
2019-01-04T14:14:34.353Z,7
2019-01-04T14:15:36.787Z,7
2019-01-04T14:16:38.948Z,7
2019-01-04T14:17:41.121Z,7
2019-01-04T14:18:43.265Z,6
2019-01-04T14:19:45.420Z,6
2019-01-04T14:20:47.553Z,6
2019-01-04T14:21:49.711Z,6
2019-01-04T14:22:51.884Z,6
2019-01-04T14:23:54.023Z,7
2019-01-04T14:24:56.136Z,7
2019-01-04T14:25:58.554Z,7
2019-01-04T14:27:01.075Z,6
2019-01-04T14:28:03.629Z,6
2019-01-04T14:29:05.767Z,5
2019-01-04T14:30:07.904Z,6
2019-01-04T14:31:10.108Z,6
2019-01-04T14:32:12.921Z,6
2019-01-04T14:33:15.055Z,5
2019-01-04T14:34:17.197Z,5
2019-01-04T14:35:19.397Z,5
2019-01-04T14:36:21.555Z,5
2019-01-04T14:37:23.713Z,5
2019-01-04T14:38:25.984Z,5
2019-01-04T14:39:28.946Z,5
2019-01-04T14:40:31.469Z,5
2019-01-04T14:41:33.666Z,5
2019-01-04T14:42:35.819Z,4
2019-01-04T14:43:37.971Z,4
2019-01-04T14:44:40.429Z,4
2019-01-04T14:45:42.849Z,4
2019-01-04T14:46:45.371Z,4
2019-01-04T14:47:47.517Z,4
2019-01-04T14:48:49.674Z,3
2019-01-04T14:49:52.319Z,3
2019-01-04T14:50:54.925Z,3
2019-01-04T14:51:57.526Z,3
2019-01-04T14:53:00.332Z,3
2019-01-04T14:54:02.783Z,3
2019-01-04T14:55:05.328Z,2
2019-01-04T14:56:07.747Z,2
2019-01-04T14:57:10.283Z,2
2019-01-04T14:58:12.427Z,2
2019-01-04T14:59:14.852Z,2
2019-01-04T15:00:17.039Z,1
2019-01-04T15:01:19.198Z,1
2019-01-04T15:02:21.322Z,1
2019-01-04T15:03:23.460Z,1
2019-01-04T15:04:25.605Z,1
2019-01-04T15:05:27.758Z,1
2019-01-04T15:06:30.287Z,1
2019-01-04T15:07:32.741Z,1
2019-01-04T15:08:34.891Z,1
2019-01-04T15:09:37.312Z,1
2019-01-04T15:10:39.801Z,1
2019-01-04T15:11:42.049Z,1
2019-01-04T15:12:44.198Z,0
2019-01-04T15:13:46.396Z,0
2019-01-04T15:14:48.537Z,0
2019-01-04T15:15:50.670Z,0
2019-01-04T15:16:52.804Z,0
2019-01-04T15:17:54.945Z,0
2019-01-04T15:18:57.076Z,0
2019-01-04T15:19:59.607Z,0
2019-01-04T15:21:01.731Z,0
2019-01-04T15:22:03.918Z,0